Number One, Kentucky
Current Conditions -  °F | °C
As of 7:40 AM on Sunday 21 Dec 2014 (Local Time) from KEKQ Reporting Station
Haze Haze  
Wind Chill: -8°   Ceiling: Unl
Heat Index: -8°   Visibility: 2.5mi
Dew Point: -9°   Wind: 0mph
Humidity: 93%   Direction: NA
Pressure: 30.3"   Gusts: NA
Location:  36.8129°N, 84.8215°W
Report Text: KEKQ 211240Z AUTO 00000KT 2 1/2SM BR CLR M08/M09 A3030 RMK AO2
Loading
Personal Weather Stations






























Interactive Weather Map New forecast layout! Learn more

10-Day Weather Forecast

Advertisements
Track Severe Weather on mobile